Pangborn Memorial Airport
KEAT : now visible

Airfield :











YOU CAN JOIN US ON...

 
LOGIN :

Register | Disclaimer

   EN    FR    IT 

 









Legend :    VFR   Marginal VFR   IFR   Intensive IFR   Very Intensive IFR
Visi :
Ceiling :
>= 8 km
>= 3000ft
5 to 8 km
1000 to 3000 ft
1500m to 5 km
500 to 1000 ft
800 to 1500m
200 to 500 ft
< 800m
< 200 ft
Symbols :   Thunderstorms  Fog  Heavy snow  Heavy precipitations  Wind > 20 kt






- Airport Elevation : 1249 ft


KEAT - Pangborn Memorial

CURRENT METAR :
  • 181255Z AUTO 26007KT 4SM HZ OVC027 14/09 A2983 RMK AO2 SLP095 T01440089

EXPIRED METARs :
  • 181155Z AUTO 26006KT 4SM HZ OVC027 15/09 A2983 RMK AO2 SLP095 T01500089 10178 20144 56004
  • 181055Z AUTO 27008KT 4SM HZ OVC027 14/09 A2983 RMK AO2 SLP096 T01440089

TAF KEAT
Valid from the 18 at 12:00 until the 19 at 12:00 UTC


181140Z 1812/1912 27008KT 4SM FU OVC027
FM182000 29008KT 4SM FU BKN050
FM182300 30012G18KT 5SM FU VCSH OVC100
PROB30 1823/1904 2SM -SHRA BR OVC015
FM190400 31010KT 5SM BR BKN120
KZSE FIR / North America



MET'MAP, your aeronautical weather chart ! - Copyright ORBIFLY December 2007 - Disclaimer

ORBIFLY MET'MAP TEAM :

Programming & Development : Alexandra Zaïnal
Concept & original design : Baudouin d'Aumeries
Assistance for programming : Marc-Olivier Méhu
Technical & hardware support : Manuel Goepfert

Contact : metmap@orbifly.com




SOURCES & CREDITS :

   NOAA       Earth
Advisory